Time;durP1;ratioP1;P1;durP2;ratioP2;P2;SDS_P1;SDS_P2;PMS_P1;PMS_P2;Temp;Humidity;BMP_temperature;BMP_pressure;BME280_temperature;BME280_humidity;BME280_pressure;Samples;Min_cycle;Max_cycle;Signal;HPM_P1;HPM_P2
2021/06/25 07:06:37;;;;;;;9.70;7.22;;;;;;;;;;5288598;23;20421;-54
2021/06/25 07:09:03;;;;;;;10.75;6.60;;;;;;;;;;4970956;28;20047;-52
2021/06/25 07:11:29;;;;;;;10.75;7.25;;;;;;;;;;4959197;28;20074;-53
2021/06/25 07:13:56;;;;;;;10.57;7.20;;;;;;;;;;4964397;28;20027;-51
2021/06/25 07:16:22;;;;;;;10.25;6.57;;;;;;;;;;4960842;28;20136;-53
2021/06/25 07:18:48;;;;;;;11.07;7.55;;;;;;;;;;4971423;28;20031;-52
2021/06/25 07:21:14;;;;;;;9.05;7.30;;;;;;;;;;4964124;28;20027;-51
2021/06/25 07:23:40;;;;;;;8.80;6.55;;;;;;;;;;4969847;28;20034;-48
2021/06/25 07:26:06;;;;;;;8.65;6.40;;;;;;;;;;4952325;28;20107;-47
2021/06/25 07:28:32;;;;;;;12.25;6.88;;;;;;;;;;4958692;28;20098;-48
2021/06/25 07:30:58;;;;;;;9.27;6.18;;;;;;;;;;4960238;28;20039;-51
2021/06/25 07:33:26;;;;;;;8.73;5.93;;;;;;;;;;4971724;28;20091;-50
2021/06/25 07:35:53;;;;;;;7.55;5.80;;;;;;;;;;4971122;28;20129;-48
2021/06/25 07:38:19;;;;;;;;;;;;;;;;;;4963735;28;20031;-48
2021/06/25 07:40:45;;;;;;;8.33;5.63;;;;;;;;;;4965308;28;19948;-48
2021/06/25 07:43:11;;;;;;;6.72;5.47;;;;;;;;;;4965965;28;20053;-53
2021/06/25 07:45:38;;;;;;;7.50;5.68;;;;;;;;;;4971493;28;20027;-50
2021/06/25 07:48:04;;;;;;;7.50;5.72;;;;;;;;;;4968886;28;20143;-47
2021/06/25 07:50:30;;;;;;;9.87;6.40;;;;;;;;;;4970989;28;20031;-48
2021/06/25 07:52:56;;;;;;;6.97;5.38;;;;;;;;;;4970534;28;20073;-49
2021/06/25 07:55:22;;;;;;;7.72;5.20;;;;;;;;;;4967878;28;20098;-47
2021/06/25 07:57:48;;;;;;;9.95;5.70;;;;;;;;;;4970120;28;20479;-50
2021/06/25 08:00:15;;;;;;;9.23;5.05;;;;;;;;;;4951982;28;20024;-51
2021/06/25 08:02:41;;;;;;;5.40;4.87;;;;;;;;;;4970488;28;20466;-48
2021/06/25 08:05:08;;;;;;;10.05;5.50;;;;;;;;;;4970537;28;20023;-46
2021/06/25 08:07:34;;;;;;;6.80;5.57;;;;;;;;;;4969909;28;20142;-46
2021/06/25 08:10:00;;;;;;;7.00;5.20;;;;;;;;;;4968921;28;20125;-47
2021/06/25 08:12:26;;;;;;;7.93;5.30;;;;;;;;;;4959649;28;20154;-47
2021/06/25 08:14:55;;;;;;;7.35;5.03;;;;;;;;;;4966043;28;20022;-50
2021/06/25 08:17:21;;;;;;;7.53;4.60;;;;;;;;;;4971622;28;20019;-48
2021/06/25 08:19:47;;;;;;;6.18;5.35;;;;;;;;;;4971434;28;20447;-49
2021/06/25 08:22:13;;;;;;;6.25;5.38;;;;;;;;;;4960224;28;20075;-51
2021/06/25 08:24:39;;;;;;;6.82;5.70;;;;;;;;;;4968972;28;20039;-50
2021/06/25 08:27:05;;;;;;;6.15;5.22;;;;;;;;;;4966212;28;20503;-51
2021/06/25 08:29:31;;;;;;;5.60;4.70;;;;;;;;;;4965111;28;20546;-52
2021/06/25 08:32:00;;;;;;;7.90;4.97;;;;;;;;;;4970287;28;20742;-50
2021/06/25 08:34:26;;;;;;;5.82;4.72;;;;;;;;;;4942044;28;20023;-53
2021/06/25 08:36:52;;;;;;;5.85;4.60;;;;;;;;;;4965839;28;20023;-49
2021/06/25 08:39:19;;;;;;;5.93;4.97;;;;;;;;;;4957398;28;20030;-49
2021/06/25 08:41:45;;;;;;;5.15;4.55;;;;;;;;;;4964573;28;20049;-51
2021/06/25 08:44:12;;;;;;;4.93;4.28;;;;;;;;;;4964286;28;20097;-49
2021/06/25 08:46:38;;;;;;;5.25;4.25;;;;;;;;;;4953464;28;20117;-48
2021/06/25 08:49:05;;;;;;;5.82;4.75;;;;;;;;;;4957823;28;20054;-49
2021/06/25 08:51:31;;;;;;;8.40;4.50;;;;;;;;;;4958330;28;20051;-52
2021/06/25 08:53:58;;;;;;;4.68;4.15;;;;;;;;;;4971204;28;20114;-53
2021/06/25 08:56:24;;;;;;;6.03;4.75;;;;;;;;;;4971281;28;20035;-50
2021/06/25 08:58:50;;;;;;;8.65;5.45;;;;;;;;;;4966815;28;20428;-49
2021/06/25 09:01:16;;;;;;;5.18;4.00;;;;;;;;;;4947735;28;20503;-54
2021/06/25 09:03:50;;;;;;;4.65;4.15;;;;;;;;;;4953836;28;20515;-54
2021/06/25 09:06:16;;;;;;;7.43;4.57;;;;;;;;;;4969383;28;20047;-54
2021/06/25 09:08:43;;;;;;;6.93;4.57;;;;;;;;;;4956532;28;20066;-52
2021/06/25 09:11:22;;;;;;;6.95;4.22;;;;;;;;;;4951878;28;20090;-50
2021/06/25 09:13:56;;;;;;;5.90;4.30;;;;;;;;;;4936158;28;20079;-53
2021/06/25 09:16:23;;;;;;;5.57;4.80;;;;;;;;;;4940520;28;20030;-48
2021/06/25 09:19:07;;;;;;;5.28;4.22;;;;;;;;;;4961210;28;20098;-52
2021/06/25 09:21:37;;;;;;;6.18;4.50;;;;;;;;;;4956655;28;20094;-50
2021/06/25 09:24:20;;;;;;;7.38;4.47;;;;;;;;;;4971295;28;20042;-50
2021/06/25 09:26:47;;;;;;;6.00;4.60;;;;;;;;;;4961132;28;20082;-54
2021/06/25 09:29:13;;;;;;;;;;;;;;;;;;4955398;28;20119;-49
2021/06/25 09:31:39;;;;;;;6.80;4.40;;;;;;;;;;4959845;28;20001;-50
2021/06/25 09:34:07;;;;;;;7.67;4.60;;;;;;;;;;4940929;28;20023;-52
2021/06/25 09:36:38;;;;;;;8.57;5.00;;;;;;;;;;4968811;28;20035;-49
2021/06/25 09:39:07;;;;;;;6.45;4.38;;;;;;;;;;4965126;28;20024;-48
2021/06/25 09:41:33;;;;;;;7.10;4.60;;;;;;;;;;4951842;28;20035;-48
2021/06/25 09:44:02;;;;;;;6.00;5.30;;;;;;;;;;4953180;28;20074;-50
2021/06/25 09:46:29;;;;;;;7.03;4.97;;;;;;;;;;4963973;28;20042;-49
2021/06/25 09:48:55;;;;;;;;;;;;;;;;;;4958140;28;20031;-49
2021/06/25 09:51:22;;;;;;;6.73;4.90;;;;;;;;;;4965503;28;20016;-48
2021/06/25 09:54:07;;;;;;;5.90;4.57;;;;;;;;;;4948786;28;20048;-50
2021/06/25 09:56:37;;;;;;;9.55;5.00;;;;;;;;;;4954537;28;20047;-50
2021/06/25 09:59:32;;;;;;;8.52;5.35;;;;;;;;;;4967414;28;20109;-53
2021/06/25 10:01:59;;;;;;;9.48;5.47;;;;;;;;;;4954087;28;20063;-52
2021/06/25 10:04:35;;;;;;;8.05;5.30;;;;;;;;;;4966546;28;20026;-49
2021/06/25 10:07:11;;;;;;;8.15;4.60;;;;;;;;;;4973235;28;20061;-50
2021/06/25 10:09:37;;;;;;;7.95;4.80;;;;;;;;;;4961429;28;20079;-51
2021/06/25 10:12:03;;;;;;;9.60;4.85;;;;;;;;;;4960553;28;20043;-48
2021/06/25 10:14:31;;;;;;;7.27;4.87;;;;;;;;;;4972681;28;20438;-49
2021/06/25 10:16:57;;;;;;;7.28;4.93;;;;;;;;;;4962911;28;20043;-48
2021/06/25 10:19:23;;;;;;;7.38;4.15;;;;;;;;;;4967876;28;20069;-48
2021/06/25 10:21:51;;;;;;;7.90;4.78;;;;;;;;;;4963517;28;20038;-52
2021/06/25 10:24:18;;;;;;;8.30;4.90;;;;;;;;;;4956269;28;20037;-50
2021/06/25 10:26:44;;;;;;;7.78;4.55;;;;;;;;;;4965495;28;20023;-51
2021/06/25 10:29:11;;;;;;;10.43;4.70;;;;;;;;;;4969785;28;20422;-49
2021/06/25 10:31:37;;;;;;;9.13;5.30;;;;;;;;;;4970269;28;20110;-49
2021/06/25 10:34:03;;;;;;;7.43;5.05;;;;;;;;;;4971129;28;20027;-53
2021/06/25 10:36:31;;;;;;;8.68;4.75;;;;;;;;;;4970332;28;20105;-50
2021/06/25 10:39:05;;;;;;;8.23;5.07;;;;;;;;;;4971013;28;20027;-48
2021/06/25 10:41:46;;;;;;;9.02;5.22;;;;;;;;;;4970674;28;20035;-50
2021/06/25 10:44:33;;;;;;;8.10;4.95;;;;;;;;;;4967108;28;20026;-51
2021/06/25 10:47:19;;;;;;;8.00;5.50;;;;;;;;;;4969999;28;20019;-50
2021/06/25 10:50:09;;;;;;;7.47;5.28;;;;;;;;;;4961170;28;20095;-51
2021/06/25 10:52:36;;;;;;;7.25;5.07;;;;;;;;;;4968605;28;20046;-48
2021/06/25 10:55:04;;;;;;;7.00;4.90;;;;;;;;;;4966616;28;20399;-50
2021/06/25 10:57:31;;;;;;;8.85;5.45;;;;;;;;;;4966271;28;20031;-49
2021/06/25 10:59:57;;;;;;;6.93;4.60;;;;;;;;;;4966821;28;20023;-48
2021/06/25 11:02:42;;;;;;;6.55;4.47;;;;;;;;;;4970248;28;20122;-50
2021/06/25 11:05:26;;;;;;;8.73;5.05;;;;;;;;;;4970173;28;20023;-48
2021/06/25 11:08:12;;;;;;;7.65;5.18;;;;;;;;;;4971447;28;20108;-48
2021/06/25 11:10:38;;;;;;;8.93;4.82;;;;;;;;;;4958094;28;20059;-49
2021/06/25 11:13:15;;;;;;;8.15;4.90;;;;;;;;;;4970451;28;20348;-48
2021/06/25 11:15:43;;;;;;;8.63;4.82;;;;;;;;;;4957889;28;20482;-49
2021/06/25 11:18:15;;;;;;;7.65;4.82;;;;;;;;;;4956657;28;20019;-49
2021/06/25 11:20:51;;;;;;;9.07;5.18;;;;;;;;;;4952554;28;20023;-50
2021/06/25 11:23:24;;;;;;;5.72;4.30;;;;;;;;;;4969113;28;20043;-46
2021/06/25 11:25:55;;;;;;;6.00;4.28;;;;;;;;;;4948596;28;20026;-49
2021/06/25 11:28:40;;;;;;;6.13;4.22;;;;;;;;;;4967816;28;20062;-50
2021/06/25 11:31:06;;;;;;;9.13;4.72;;;;;;;;;;4964407;28;20046;-49
2021/06/25 11:33:34;;;;;;;5.90;4.57;;;;;;;;;;4966278;28;20063;-48
2021/06/25 11:36:21;;;;;;;8.38;4.40;;;;;;;;;;4967148;28;20023;-47
2021/06/25 11:39:02;;;;;;;5.80;4.40;;;;;;;;;;4967570;28;20104;-49
2021/06/25 11:41:29;;;;;;;6.05;4.30;;;;;;;;;;4958698;28;20045;-49
2021/06/25 11:43:57;;;;;;;8.02;4.30;;;;;;;;;;4958823;28;20102;-48
2021/06/25 11:46:24;;;;;;;7.82;4.90;;;;;;;;;;4962180;28;20106;-50
2021/06/25 11:48:51;;;;;;;7.63;4.35;;;;;;;;;;4952707;28;20027;-48
2021/06/25 11:51:19;;;;;;;6.97;4.47;;;;;;;;;;4963699;28;20043;-48
2021/06/25 11:53:46;;;;;;;7.63;4.10;;;;;;;;;;4957285;28;20089;-51
2021/06/25 11:56:23;;;;;;;5.40;4.35;;;;;;;;;;4947152;28;20053;-53
2021/06/25 11:59:00;;;;;;;6.57;4.03;;;;;;;;;;4952008;28;20031;-49
2021/06/25 12:01:29;;;;;;;6.05;3.95;;;;;;;;;;4964328;28;20037;-54
2021/06/25 12:03:59;;;;;;;6.00;4.10;;;;;;;;;;4970263;28;20034;-50
2021/06/25 12:06:26;;;;;;;5.35;3.97;;;;;;;;;;4970017;28;20082;-49
2021/06/25 12:08:52;;;;;;;6.20;4.03;;;;;;;;;;4967731;28;20451;-51
2021/06/25 12:11:18;;;;;;;6.22;3.38;;;;;;;;;;4951849;28;20046;-51
2021/06/25 12:13:44;;;;;;;4.88;4.10;;;;;;;;;;4951680;28;20035;-52
2021/06/25 12:16:11;;;;;;;7.13;4.15;;;;;;;;;;4934744;29;20107;-49
2021/06/25 12:18:43;;;;;;;5.07;3.60;;;;;;;;;;4965186;28;20031;-52
2021/06/25 12:21:10;;;;;;;5.13;3.83;;;;;;;;;;4962824;28;20327;-52
2021/06/25 12:23:37;;;;;;;4.55;3.50;;;;;;;;;;4966746;28;20062;-48
2021/06/25 12:26:18;;;;;;;5.43;3.58;;;;;;;;;;4962878;28;20023;-49
2021/06/25 12:28:45;;;;;;;6.22;4.07;;;;;;;;;;4951662;28;20137;-49
2021/06/25 12:31:12;;;;;;;4.88;3.30;;;;;;;;;;4965795;28;20125;-52
2021/06/25 12:33:39;;;;;;;4.70;3.88;;;;;;;;;;4971757;28;20498;-51
2021/06/25 12:36:05;;;;;;;6.18;3.78;;;;;;;;;;4965508;28;20082;-50
2021/06/25 12:38:31;;;;;;;5.27;4.13;;;;;;;;;;4972690;28;20024;-50
2021/06/25 12:41:01;;;;;;;5.75;3.78;;;;;;;;;;4966138;28;20374;-49
2021/06/25 12:43:30;;;;;;;6.65;4.28;;;;;;;;;;4976566;28;20097;-48
2021/06/25 12:46:02;;;;;;;5.85;3.78;;;;;;;;;;4976231;28;20031;-49
2021/06/25 12:48:30;;;;;;;5.00;3.67;;;;;;;;;;4962108;28;20032;-49
2021/06/25 12:50:59;;;;;;;6.80;3.83;;;;;;;;;;4951837;28;20031;-50
2021/06/25 12:53:29;;;;;;;4.43;3.45;;;;;;;;;;4951606;28;20074;-51
2021/06/25 12:55:56;;;;;;;4.68;3.60;;;;;;;;;;4955322;28;20511;-53
2021/06/25 12:58:22;;;;;;;4.35;3.28;;;;;;;;;;4971391;28;20037;-51
2021/06/25 13:00:54;;;;;;;4.85;3.08;;;;;;;;;;4968007;28;20022;-49
2021/06/25 13:03:20;;;;;;;4.57;3.53;;;;;;;;;;4958185;28;20030;-50
2021/06/25 13:05:46;;;;;;;4.90;3.30;;;;;;;;;;4970635;28;20447;-47
2021/06/25 13:08:31;;;;;;;4.15;3.13;;;;;;;;;;4957028;28;20539;-49
2021/06/25 13:11:15;;;;;;;4.03;3.20;;;;;;;;;;4970251;28;20384;-50
2021/06/25 13:13:42;;;;;;;4.32;3.55;;;;;;;;;;4950949;28;20079;-50
2021/06/25 13:16:12;;;;;;;4.27;3.40;;;;;;;;;;4951200;28;20073;-49
2021/06/25 13:18:40;;;;;;;5.15;3.17;;;;;;;;;;4956001;28;20771;-49
2021/06/25 13:21:12;;;;;;;4.70;3.15;;;;;;;;;;4967714;28;20049;-51
2021/06/25 13:23:39;;;;;;;4.30;3.20;;;;;;;;;;4955241;28;20052;-50
2021/06/25 13:26:11;;;;;;;5.00;3.38;;;;;;;;;;4970052;28;20525;-49
2021/06/25 13:28:38;;;;;;;4.45;3.22;;;;;;;;;;4964704;28;20123;-51
2021/06/25 13:31:08;;;;;;;3.90;3.13;;;;;;;;;;4967694;28;20038;-49
2021/06/25 13:33:41;;;;;;;4.15;3.33;;;;;;;;;;4972856;28;20077;-48
2021/06/25 13:36:08;;;;;;;5.05;3.53;;;;;;;;;;4972961;28;20026;-48
2021/06/25 13:38:34;;;;;;;;;;;;;;;;;;4971460;28;20062;-47
2021/06/25 13:41:10;;;;;;;5.70;3.30;;;;;;;;;;4972606;28;20332;-51
2021/06/25 13:43:37;;;;;;;4.45;3.25;;;;;;;;;;4970512;28;20404;-53
2021/06/25 13:46:13;;;;;;;4.07;3.45;;;;;;;;;;4971363;28;20058;-49
2021/06/25 13:48:40;;;;;;;5.75;3.50;;;;;;;;;;4971200;28;20328;-48
2021/06/25 13:51:07;;;;;;;4.25;3.38;;;;;;;;;;4970683;28;20118;-48
2021/06/25 13:53:36;;;;;;;4.88;3.30;;;;;;;;;;4971670;28;20054;-48
2021/06/25 13:56:07;;;;;;;4.32;2.80;;;;;;;;;;4971643;28;20130;-46
2021/06/25 13:58:51;;;;;;;3.60;2.97;;;;;;;;;;4972056;28;20422;-49
2021/06/25 14:01:40;;;;;;;4.05;3.35;;;;;;;;;;4972513;28;20467;-50
2021/06/25 14:04:08;;;;;;;4.15;3.35;;;;;;;;;;4962460;28;20113;-52
2021/06/25 14:06:35;;;;;;;4.40;3.17;;;;;;;;;;4962873;28;20053;-52
2021/06/25 14:09:01;;;;;;;;;;;;;;;;;;4989375;28;20368;-47
2021/06/25 14:11:42;;;;;;;3.53;3.10;;;;;;;;;;4987540;28;20323;-48
2021/06/25 14:14:09;;;;;;;4.20;3.60;;;;;;;;;;4963450;28;20061;-48
2021/06/25 14:16:35;;;;;;;;;;;;;;;;;;4984628;28;20073;-49
2021/06/25 14:19:02;;;;;;;6.78;3.97;;;;;;;;;;4985391;28;19957;-47
2021/06/25 14:21:28;;;;;;;;;;;;;;;;;;4966530;28;20038;-51
2021/06/25 14:23:54;;;;;;;5.33;3.80;;;;;;;;;;4974067;28;19953;-48
2021/06/25 14:26:21;;;;;;;3.80;2.95;;;;;;;;;;4954967;28;20041;-50
2021/06/25 14:28:48;;;;;;;5.88;3.35;;;;;;;;;;4980454;28;20106;-48
2021/06/25 14:31:14;;;;;;;4.90;3.75;;;;;;;;;;4992278;28;20054;-49
2021/06/25 14:33:40;;;;;;;5.88;3.80;;;;;;;;;;4985811;28;20041;-53
2021/06/25 14:36:07;;;;;;;5.80;3.38;;;;;;;;;;4991568;28;20106;-50
2021/06/25 14:38:36;;;;;;;5.07;3.30;;;;;;;;;;4986496;28;20027;-49
2021/06/25 14:41:02;;;;;;;4.82;3.35;;;;;;;;;;4979283;28;20060;-50
2021/06/25 14:43:28;;;;;;;5.43;3.47;;;;;;;;;;4991944;28;20023;-48
2021/06/25 14:45:55;;;;;;;5.28;3.40;;;;;;;;;;4991898;28;20162;-49
2021/06/25 14:48:21;;;;;;;4.32;3.25;;;;;;;;;;4988485;28;20022;-46
2021/06/25 14:50:47;;;;;;;4.47;3.67;;;;;;;;;;4972644;28;20074;-46
2021/06/25 14:53:14;;;;;;;4.55;3.45;;;;;;;;;;4983396;28;20030;-47
2021/06/25 14:55:40;;;;;;;7.10;3.78;;;;;;;;;;4989756;28;20125;-45
2021/06/25 14:58:08;;;;;;;6.50;3.23;;;;;;;;;;4989259;28;20037;-49
2021/06/25 15:00:35;;;;;;;5.18;3.78;;;;;;;;;;4972241;28;20030;-49
2021/06/25 15:03:01;;;;;;;5.53;3.40;;;;;;;;;;4978819;28;20141;-51
2021/06/25 15:05:29;;;;;;;5.43;3.53;;;;;;;;;;4989003;28;20105;-52
2021/06/25 15:07:55;;;;;;;4.80;3.60;;;;;;;;;;4967794;28;20112;-56
2021/06/25 15:10:21;;;;;;;6.20;3.63;;;;;;;;;;4985684;28;20037;-49
2021/06/25 15:12:47;;;;;;;4.55;3.60;;;;;;;;;;4990389;28;20118;-48
2021/06/25 15:15:13;;;;;;;4.57;3.72;;;;;;;;;;4990710;28;20026;-47
2021/06/25 15:17:39;;;;;;;5.70;3.47;;;;;;;;;;4962974;28;20064;-52
2021/06/25 15:20:06;;;;;;;5.00;3.28;;;;;;;;;;4970682;28;20023;-50
2021/06/25 15:22:32;;;;;;;4.68;3.58;;;;;;;;;;4958023;28;20129;-53
2021/06/25 15:24:58;;;;;;;8.13;3.45;;;;;;;;;;4982229;28;20466;-51
2021/06/25 15:27:24;;;;;;;5.25;3.47;;;;;;;;;;4989824;28;20037;-52
2021/06/25 15:29:50;;;;;;;5.15;3.78;;;;;;;;;;4980507;28;20018;-53
2021/06/25 15:32:17;;;;;;;6.10;4.10;;;;;;;;;;4989855;28;20475;-50
2021/06/25 15:34:43;;;;;;;5.10;3.65;;;;;;;;;;4973412;28;20273;-51
2021/06/25 15:37:09;;;;;;;9.52;3.83;;;;;;;;;;4986307;28;20117;-50
2021/06/25 15:39:38;;;;;;;5.70;3.75;;;;;;;;;;4985508;28;20120;-50
2021/06/25 15:42:05;;;;;;;4.18;3.10;;;;;;;;;;4965395;28;20027;-49
2021/06/25 15:44:31;;;;;;;4.57;3.40;;;;;;;;;;4983754;28;20113;-47
2021/06/25 15:46:57;;;;;;;5.90;3.13;;;;;;;;;;4990254;28;20053;-49
2021/06/25 15:49:25;;;;;;;6.82;3.55;;;;;;;;;;4990250;28;20018;-48
2021/06/25 15:51:51;;;;;;;4.22;3.00;;;;;;;;;;5000255;28;20046;-53
2021/06/25 15:54:17;;;;;;;3.53;2.78;;;;;;;;;;4988857;28;20551;-52
2021/06/25 15:56:44;;;;;;;4.32;2.85;;;;;;;;;;4972226;28;20093;-47
2021/06/25 15:59:10;;;;;;;4.20;2.92;;;;;;;;;;4987488;28;20077;-49
2021/06/25 16:01:36;;;;;;;3.92;2.75;;;;;;;;;;4981361;28;20041;-50
2021/06/25 16:04:03;;;;;;;3.35;2.30;;;;;;;;;;4957584;28;20117;-50
2021/06/25 16:06:30;;;;;;;5.00;2.80;;;;;;;;;;4981484;28;20483;-53
2021/06/25 16:11:43;;;;;;;4.43;2.55;;;;;;;;;;4986114;28;20073;-52
2021/06/25 16:14:09;;;;;;;5.45;2.50;;;;;;;;;;4964211;28;20050;-60
2021/06/25 16:16:36;;;;;;;3.00;2.20;;;;;;;;;;4954414;28;20062;-58
2021/06/25 16:19:11;;;;;;;3.47;2.53;;;;;;;;;;4970956;28;20258;-60
2021/06/25 16:21:38;;;;;;;3.72;2.85;;;;;;;;;;4988205;28;20045;-60
2021/06/25 16:24:04;;;;;;;5.05;2.45;;;;;;;;;;4981777;28;20452;-60
2021/06/25 16:26:31;;;;;;;6.10;2.80;;;;;;;;;;4960675;28;20376;-58
2021/06/25 16:28:57;;;;;;;5.25;3.20;;;;;;;;;;4988001;28;20458;-58
2021/06/25 16:31:23;;;;;;;4.55;2.92;;;;;;;;;;4971233;28;20122;-59
2021/06/25 16:33:49;;;;;;;5.78;2.78;;;;;;;;;;4982006;28;20022;-59
2021/06/25 16:36:16;;;;;;;3.72;2.85;;;;;;;;;;4982458;28;20294;-59
2021/06/25 16:38:42;;;;;;;5.03;2.88;;;;;;;;;;4981927;28;20030;-58
2021/06/25 16:41:10;;;;;;;4.93;3.37;;;;;;;;;;4970791;28;20101;-58
2021/06/25 16:43:37;;;;;;;4.63;3.35;;;;;;;;;;4973684;28;20113;-58
2021/06/25 16:46:05;;;;;;;4.50;3.22;;;;;;;;;;4987565;28;20073;-58
2021/06/25 16:48:34;;;;;;;4.40;2.92;;;;;;;;;;4989365;28;20101;-58
2021/06/25 16:51:00;;;;;;;4.65;3.17;;;;;;;;;;4976365;28;20030;-58
2021/06/25 16:53:26;;;;;;;5.37;3.33;;;;;;;;;;4990090;28;20037;-58
2021/06/25 16:55:55;;;;;;;4.63;3.13;;;;;;;;;;4975286;28;20762;-58
2021/06/25 16:58:21;;;;;;;6.43;3.95;;;;;;;;;;4953267;28;20026;-58
2021/06/25 17:00:48;;;;;;;6.57;3.65;;;;;;;;;;4983029;28;20027;-58
2021/06/25 17:03:14;;;;;;;4.57;3.45;;;;;;;;;;4970365;28;20121;-59
2021/06/25 17:05:41;;;;;;;4.18;3.03;;;;;;;;;;4969629;28;20038;-58
2021/06/25 21:28:57;;;;;;;1.42;0.95;;;;;;;;;;5885841;23;20017;-48
2021/06/25 21:31:24;;;;;;;1.85;1.15;;;;;;;;;;4907912;29;20051;-51
2021/06/25 21:33:51;;;;;;;1.92;1.00;;;;;;;;;;4907850;29;20035;-51
2021/06/25 21:36:17;;;;;;;3.20;0.95;;;;;;;;;;4914175;29;20178;-55
2021/06/25 21:38:43;;;;;;;3.58;1.10;;;;;;;;;;4904880;29;20055;-53
2021/06/25 21:41:09;;;;;;;2.85;1.30;;;;;;;;;;4903256;29;20025;-52
2021/06/25 21:43:35;;;;;;;4.65;1.23;;;;;;;;;;4906636;29;20530;-54
2021/06/25 21:46:01;;;;;;;3.55;0.95;;;;;;;;;;4909954;29;20029;-56
